Home   Weather   Germany   Iserlohn   Past weeks
Flag for Germany

Past Weather in Iserlohn, North Rhine-Westphalia, Germany — Yesterday and Last 2 Weeks

Currently: 59 °F. Fog. (Weather station: Dortmund / Wickede, Germany). See more current weather

Past Weather in Iserlohn — Graph

°F

Iserlohn Temperature Yesterday

Maximum temperature yesterday: 68 °F (at 1:50 pm)
Minimum temperature yesterday: 50 °F (at 4:50 am)
Average temperature yesterday: 60 °F

High & Low Weather Summary for the Past Weeks

 TemperatureHumidityPressure
High81 °F (Sep 9, 1:20 pm)100% (Sep 10, 11:20 pm)30.42 "Hg (Sep 10, 11:20 pm)
Low43 °F (Sep 21, 6:20 am)48% (Sep 9, 1:20 pm)29.83 "Hg (Sep 9, 8:20 am)
Average61 °F78%30.06 "Hg
* Reported Sep 9 7:20 am — Sep 24 7:50 am, Iserlohn. Weather by CustomWeather, © 2021

Note: Actual official high and low records may vary slightly from our data, if they occured in-between our weather recording intervals... More about our weather records

Iserlohn Weather History for the Previous 24 Hours

Scroll right to see more
 ConditionsComfort  
Time TempWeatherWind HumidityBarometerVisibility
7:50 am
Fri, Sep 24
59 °FFog.7 mph94%30.01 "Hg2 mi
7:20 am59 °FFog.7 mph94%30.01 "Hg3 mi
6:50 am59 °FOvercast.9 mph94%30.01 "Hg4 mi
6:20 am57 °FOvercast.8 mph100%30.01 "Hg4 mi
5:50 am57 °FLow clouds.7 mph100%30.01 "Hg4 mi
5:20 am59 °FLow clouds.7 mph94%30.01 "Hg3 mi
4:50 am59 °FLow clouds.8 mph94%30.01 "Hg4 mi
4:20 am57 °FLow clouds.7 mph100%30.01 "Hg4 mi
3:50 am57 °FLow clouds.5 mph100%30.04 "Hg4 mi
3:20 am57 °FOvercast.7 mph100%30.01 "Hg5 mi
2:50 am57 °FOvercast.7 mph100%30.04 "HgN/A
1:50 am57 °FOvercast.7 mph94%30.04 "HgN/A
1:20 am57 °FPassing clouds.7 mph100%30.04 "HgN/A
12:50 am57 °FLow clouds.3 mph100%30.04 "HgN/A
12:20 am57 °FLow clouds.3 mph94%30.04 "Hg4 mi
11:50 pm
Thu, Sep 23
59 °FLow clouds.7 mph94%30.04 "Hg3 mi
11:20 pm59 °FLow clouds.7 mph94%30.04 "Hg4 mi
10:50 pm61 °FLight rain. Passing clouds.9 mph83%30.04 "HgN/A
10:20 pm61 °FOvercast.10 mph83%30.01 "HgN/A
9:50 pm61 °FPassing clouds.9 mph83%30.01 "HgN/A
9:20 pm63 °FPartly cloudy.8 mph77%30.01 "HgN/A
8:50 pm63 °FPassing clouds.9 mph73%30.01 "HgN/A
8:20 pm63 °FPassing clouds.10 mph73%30.01 "HgN/A
7:50 pm63 °FPartly cloudy.12 mph73%30.01 "HgN/A
7:20 pm64 °FBroken clouds.10 mph68%30.01 "HgN/A
6:50 pm64 °FPartly sunny.13 mph68%30.01 "HgN/A
6:20 pm64 °FOvercast.10 mph68%30.01 "HgN/A
5:50 pm66 °FOvercast.14 mph64%30.01 "HgN/A
5:20 pm66 °FOvercast.10 mph60%30.01 "HgN/A
4:50 pm66 °FPartly sunny.13 mph64%30.01 "HgN/A
4:20 pm66 °FPassing clouds.16 mph60%30.01 "HgN/A
3:50 pm68 °FPassing clouds.14 mph60%30.01 "HgN/A
3:20 pm68 °FSunny.15 mph56%30.01 "Hg10 mi
2:50 pm68 °FPassing clouds.15 mph53%30.01 "HgN/A
2:20 pm68 °FSunny.20 mph49%30.04 "Hg10 mi
1:50 pm68 °FSunny.17 mph49%30.04 "Hg10 mi
1:20 pm66 °FSunny.16 mph52%30.04 "Hg10 mi
12:50 pm66 °FSunny.20 mph56%30.07 "Hg10 mi
12:20 pm64 °FSunny.18 mph60%30.07 "Hg10 mi
11:50 am64 °FSunny.15 mph56%30.07 "Hg10 mi
11:20 am63 °FSunny.20 mph64%30.07 "Hg10 mi
10:50 am63 °FSunny.17 mph64%30.09 "Hg10 mi
10:20 am61 °FSunny.15 mph63%30.09 "Hg10 mi
9:50 am61 °FSunny.14 mph68%30.09 "Hg10 mi
9:20 am57 °FSunny.14 mph72%30.09 "Hg10 mi
Weather by CustomWeather, © 2021

See weather overview